Time;durP1;ratioP1;P1;durP2;ratioP2;P2;SDS_P1;SDS_P2;PMS_P1;PMS_P2;Temp;Humidity;BMP_temperature;BMP_pressure;BME280_temperature;BME280_humidity;BME280_pressure;Samples;Min_cycle;Max_cycle;Signal;HPM_P1;HPM_P2
2023/04/10 00:02:13;;;;;;;7.73;6.93;;;;;;;9.81;49.28;95019.69;4979001;28;20223;-68
2023/04/10 00:04:38;;;;;;;7.60;6.90;;;;;;;9.76;48.89;95023.72;4991824;28;20235;-69
2023/04/10 00:07:03;;;;;;;6.87;6.23;;;;;;;9.78;48.41;95021.78;4991221;28;20668;-68
2023/04/10 00:09:30;;;;;;;6.70;6.10;;;;;;;9.77;48.00;95015.69;4991688;28;20282;-68
2023/04/10 00:11:55;;;;;;;6.43;5.67;;;;;;;9.61;47.86;95013.69;4992157;28;20199;-68
2023/04/10 00:14:21;;;;;;;6.30;5.67;;;;;;;9.64;46.60;95008.16;4992475;28;20218;-68
2023/04/10 00:16:48;;;;;;;5.80;5.30;;;;;;;9.66;45.90;95014.09;4992487;28;20223;-69
2023/04/10 00:19:13;;;;;;;5.70;5.20;;;;;;;9.64;45.80;95008.16;4991934;28;20628;-68
2023/04/10 00:21:39;;;;;;;5.33;4.90;;;;;;;9.68;45.11;95009.53;4989777;28;20219;-68
2023/04/10 00:24:04;;;;;;;5.10;4.70;;;;;;;9.71;44.55;94997.91;4992221;28;20198;-68
2023/04/10 00:26:30;;;;;;;5.00;4.60;;;;;;;9.80;43.39;95006.69;4990352;28;20192;-68
2023/04/10 00:28:55;;;;;;;4.43;4.10;;;;;;;9.68;43.41;94991.16;4998871;28;20217;-68
2023/04/10 00:31:20;;;;;;;5.30;4.80;;;;;;;9.72;43.08;94995.13;4991241;28;20402;-68
2023/04/10 00:33:46;;;;;;;5.27;4.77;;;;;;;9.54;43.03;94999.50;4990409;28;20305;-69
2023/04/10 00:36:11;;;;;;;6.70;4.20;;;;;;;9.65;42.51;94996.69;4992047;28;20377;-69
2023/04/10 00:38:37;;;;;;;4.23;3.83;;;;;;;9.62;42.47;94996.16;4990183;28;20186;-69
2023/04/10 00:41:03;;;;;;;3.80;3.50;;;;;;;9.60;42.20;94991.06;4991011;28;20220;-68
2023/04/10 00:43:28;;;;;;;3.93;3.63;;;;;;;9.65;41.75;94991.44;4976955;28;20350;-69
2023/04/10 00:45:53;;;;;;;4.13;3.73;;;;;;;9.70;41.65;94990.97;4991793;28;20251;-68
2023/04/10 00:48:19;;;;;;;4.03;3.67;;;;;;;9.69;41.52;94990.16;4991634;28;20630;-68
2023/04/10 00:50:45;;;;;;;4.27;3.87;;;;;;;9.63;41.70;94995.19;4989394;28;20687;-68
2023/04/10 00:53:11;;;;;;;5.03;3.40;;;;;;;9.62;42.40;94983.03;4991676;28;20215;-68
2023/04/10 00:55:36;;;;;;;4.10;3.70;;;;;;;9.62;41.91;94994.38;4985605;28;20227;-68
2023/04/10 00:58:02;;;;;;;4.27;3.97;;;;;;;9.66;41.98;94994.91;4991563;28;20244;-67
2023/04/10 01:00:28;;;;;;;4.47;4.07;;;;;;;9.68;42.69;94987.69;4986761;28;20243;-68
2023/04/10 01:02:54;;;;;;;4.57;4.17;;;;;;;9.69;43.06;94989.34;4995584;28;20198;-68
2023/04/10 01:05:21;;;;;;;4.33;4.03;;;;;;;9.78;43.13;94982.38;4990924;28;20231;-69
2023/04/10 01:07:46;;;;;;;4.50;4.20;;;;;;;9.71;43.43;94980.34;4998996;28;20216;-68
2023/04/10 01:10:23;;;;;;;4.30;4.00;;;;;;;9.75;44.02;94973.00;4991618;28;20269;-67
2023/04/10 01:13:32;;;;;;;5.33;4.93;;;;;;;9.63;46.61;94975.00;4991922;28;20277;-67
2023/04/10 01:16:04;;;;;;;5.43;5.00;;;;;;;9.69;46.96;94973.59;4928792;28;20228;-68
2023/04/10 01:18:41;;;;;;;6.00;5.50;;;;;;;9.66;47.27;94979.13;4954521;28;20220;-68
2023/04/10 01:21:10;;;;;;;5.43;4.93;;;;;;;9.61;47.57;94979.56;4947924;29;20196;-70
2023/04/10 01:24:06;;;;;;;5.37;4.87;;;;;;;9.54;48.36;94988.19;4955105;28;20210;-71
2023/04/10 01:26:51;;;;;;;5.67;5.17;;;;;;;9.60;48.28;94987.63;4937427;29;20212;-70
2023/04/10 01:29:21;;;;;;;6.00;5.50;;;;;;;9.57;48.39;94980.84;4952151;28;20231;-70
2023/04/10 01:31:52;;;;;;;5.67;5.17;;;;;;;9.55;48.78;94981.97;4941104;28;20220;-70
2023/04/10 01:34:26;;;;;;;6.00;5.50;;;;;;;9.53;48.71;94979.47;4935295;29;20233;-70
2023/04/10 01:37:16;;;;;;;4.93;4.53;;;;;;;9.54;47.66;94978.50;4935985;28;20280;-70
2023/04/10 01:39:42;;;;;;;5.10;4.70;;;;;;;9.47;46.31;94980.06;4870274;29;20237;-68
2023/04/10 01:42:10;;;;;;;5.77;5.27;;;;;;;9.41;46.34;94980.63;4870380;29;20210;-68
2023/04/10 01:44:41;;;;;;;5.50;5.00;;;;;;;9.44;46.51;94980.38;4867343;29;20199;-68
2023/04/10 01:47:07;;;;;;;5.40;5.00;;;;;;;9.43;46.70;94976.91;4866047;29;20259;-68
2023/04/10 01:49:34;;;;;;;5.17;4.73;;;;;;;9.38;47.43;94976.53;4879858;29;20222;-68
2023/04/10 01:52:01;;;;;;;5.30;4.80;;;;;;;9.43;47.10;94976.91;4911797;29;20265;-68
2023/04/10 01:54:27;;;;;;;5.27;4.67;;;;;;;9.43;47.23;94978.69;4916463;29;20237;-68
2023/04/10 01:56:53;;;;;;;5.53;5.03;;;;;;;9.45;47.12;94987.25;4928808;29;20344;-68
2023/04/10 01:59:19;;;;;;;5.13;4.63;;;;;;;9.50;47.04;94979.78;4917328;29;20232;-68
2023/04/10 02:01:44;;;;;;;4.90;4.50;;;;;;;9.53;47.69;94987.34;4911334;29;20225;-68
2023/04/10 02:04:10;;;;;;;5.20;4.73;;;;;;;9.58;47.52;94979.88;4932191;29;20245;-68
2023/04/10 02:06:35;;;;;;;5.07;4.67;;;;;;;9.45;47.81;94979.38;4915955;29;20229;-68
2023/04/10 02:09:20;;;;;;;4.80;4.33;;;;;;;9.47;48.00;94982.69;4916334;29;20218;-68
2023/04/10 02:12:03;;;;;;;4.80;4.40;;;;;;;9.56;48.05;94973.94;4913146;29;20248;-68
2023/04/10 02:14:31;;;;;;;5.03;4.60;;;;;;;9.47;48.32;94970.41;4927419;29;20702;-69
2023/04/10 02:16:57;;;;;;;5.00;4.60;;;;;;;9.55;48.44;94966.22;4956975;28;20224;-68
2023/04/10 02:19:25;;;;;;;4.77;4.37;;;;;;;9.53;48.30;94953.22;4994251;28;20243;-68
2023/04/10 02:21:52;;;;;;;4.50;4.20;;;;;;;9.53;48.62;94949.78;4966970;28;20282;-68
2023/04/10 02:24:19;;;;;;;4.70;4.30;;;;;;;9.65;48.66;94952.06;4976202;28;20222;-68
2023/04/10 02:26:46;;;;;;;4.87;4.37;;;;;;;9.62;48.71;94952.38;4993801;28;20191;-68
2023/04/10 02:29:12;;;;;;;4.93;4.53;;;;;;;9.61;48.61;94947.25;4995430;28;20239;-68
2023/04/10 02:31:37;;;;;;;4.70;4.30;;;;;;;9.50;48.17;94949.09;4994228;28;20219;-69
2023/04/10 02:34:03;;;;;;;5.27;4.30;;;;;;;9.44;48.56;94944.44;4993940;28;20307;-68
2023/04/10 02:36:28;;;;;;;5.10;4.60;;;;;;;9.42;47.71;94942.94;4985807;28;20220;-68
2023/04/10 02:38:54;;;;;;;4.73;4.37;;;;;;;9.43;47.33;94934.09;4993577;28;20184;-68
2023/04/10 02:41:19;;;;;;;5.17;4.77;;;;;;;9.47;47.13;94932.84;4994104;28;20179;-68
2023/04/10 02:43:45;;;;;;;4.83;4.43;;;;;;;9.38;46.88;94933.69;4993781;28;20223;-69
2023/04/10 02:46:10;;;;;;;5.67;5.17;;;;;;;9.36;47.14;94927.78;4993794;28;20219;-68
2023/04/10 02:48:36;;;;;;;5.10;4.70;;;;;;;9.40;46.83;94926.50;4993959;28;20227;-70
2023/04/10 02:51:01;;;;;;;4.87;4.47;;;;;;;9.47;46.90;94922.34;4995192;28;20187;-68
2023/04/10 02:53:27;;;;;;;5.20;4.70;;;;;;;9.44;46.81;94922.63;4990086;28;20279;-68
2023/04/10 02:55:53;;;;;;;4.53;4.17;;;;;;;9.46;46.76;94918.03;4993724;28;20296;-68
2023/04/10 02:58:20;;;;;;;5.20;4.70;;;;;;;9.45;46.77;94914.59;4993222;28;20251;-68
2023/04/10 03:00:50;;;;;;;5.97;4.93;;;;;;;9.43;47.00;94915.72;4991637;28;20307;-68
2023/04/10 03:03:18;;;;;;;5.47;4.67;;;;;;;9.44;47.01;94920.00;4995090;28;20246;-68
2023/04/10 03:05:45;;;;;;;6.23;4.70;;;;;;;9.35;47.41;94918.25;4994346;28;20229;-68
2023/04/10 03:08:12;;;;;;;5.60;5.10;;;;;;;9.42;47.47;94921.94;4986564;28;20231;-69
2023/04/10 03:10:37;;;;;;;5.37;4.90;;;;;;;9.27;47.83;94921.59;4994052;28;20215;-68
2023/04/10 03:13:03;;;;;;;5.97;5.33;;;;;;;9.35;47.94;94924.31;4995359;28;20560;-68
2023/04/10 03:15:28;;;;;;;6.13;5.30;;;;;;;9.27;48.15;94925.06;4993362;28;20331;-68
2023/04/10 03:17:54;;;;;;;8.20;5.60;;;;;;;9.21;48.33;94923.00;4993274;28;20275;-68
2023/04/10 03:20:19;;;;;;;8.73;5.57;;;;;;;9.23;48.75;94920.25;4993733;28;20190;-69
2023/04/10 03:22:45;;;;;;;6.93;5.53;;;;;;;9.28;48.22;94924.09;4992417;28;20223;-69
2023/04/10 03:25:10;;;;;;;5.67;5.17;;;;;;;9.29;48.07;94930.16;4991869;28;20283;-69
2023/04/10 03:27:35;;;;;;;6.00;5.50;;;;;;;9.16;48.06;94914.75;4991516;28;20307;-69
2023/04/10 03:30:01;;;;;;;5.90;5.40;;;;;;;9.24;48.03;94927.97;4994305;28;20571;-69
2023/04/10 03:32:29;;;;;;;6.37;5.80;;;;;;;9.14;47.98;94927.19;4993695;28;20214;-70
2023/04/10 03:34:56;;;;;;;5.47;4.90;;;;;;;9.07;48.55;94927.94;4992856;28;20223;-69
2023/04/10 03:37:21;;;;;;;7.27;5.13;;;;;;;9.06;49.04;94929.69;4992854;28;20219;-69
2023/04/10 03:39:47;;;;;;;6.53;5.93;;;;;;;8.92;49.34;94919.69;4992015;28;20245;-69
2023/04/10 03:42:12;;;;;;;8.07;6.30;;;;;;;8.86;49.35;94928.13;4992636;28;20227;-69
2023/04/10 03:44:38;;;;;;;7.27;6.60;;;;;;;8.88;49.68;94931.44;4991292;28;20183;-69
2023/04/10 03:47:03;;;;;;;6.53;6.03;;;;;;;8.89;49.68;94936.53;4990205;28;20300;-69
2023/04/10 03:49:29;;;;;;;7.33;6.37;;;;;;;8.89;49.92;94935.72;4991498;28;20219;-69
2023/04/10 03:51:54;;;;;;;8.47;5.97;;;;;;;8.93;49.99;94935.28;4992786;28;20227;-69
2023/04/10 03:54:20;;;;;;;6.90;6.30;;;;;;;8.96;50.19;94935.00;4992415;28;20362;-69
2023/04/10 03:56:45;;;;;;;7.30;6.50;;;;;;;9.02;50.44;94944.09;4992359;28;20175;-69
2023/04/10 03:59:10;;;;;;;7.53;6.80;;;;;;;9.03;50.45;94940.47;4992530;28;20220;-69
2023/04/10 04:01:36;;;;;;;7.73;6.50;;;;;;;9.08;50.64;94942.69;4992218;28;20677;-69
2023/04/10 04:04:01;;;;;;;7.23;6.50;;;;;;;9.04;51.06;94945.59;4991900;28;20312;-69
2023/04/10 04:06:27;;;;;;;7.43;6.73;;;;;;;9.06;50.92;94948.06;4992168;28;20310;-69
2023/04/10 04:08:52;;;;;;;8.33;7.23;;;;;;;9.03;51.25;94946.56;4993050;28;20183;-69
2023/04/10 04:11:18;;;;;;;8.23;7.43;;;;;;;9.15;51.21;94947.22;4986390;28;20298;-69
2023/04/10 04:13:43;;;;;;;9.13;8.30;;;;;;;9.10;51.69;94954.69;4992269;28;20215;-68
2023/04/10 04:16:09;;;;;;;8.50;7.70;;;;;;;9.16;51.67;94954.09;4988952;28;20224;-70
2023/04/10 04:18:35;;;;;;;10.00;9.10;;;;;;;9.08;52.07;94956.63;4989382;28;20227;-70
2023/04/10 04:21:00;;;;;;;9.03;8.20;;;;;;;9.15;52.20;94955.06;4992035;28;20274;-69
2023/04/10 04:23:26;;;;;;;9.20;8.30;;;;;;;9.07;52.28;94952.34;4992825;28;20281;-69
2023/04/10 04:25:53;;;;;;;9.70;8.20;;;;;;;9.07;52.44;94957.59;4991892;28;20215;-69
2023/04/10 04:28:18;;;;;;;8.77;7.97;;;;;;;9.02;52.54;94957.19;4988908;28;20297;-69
2023/04/10 04:30:44;;;;;;;10.93;8.90;;;;;;;9.13;52.39;94959.63;5000775;28;20718;-69
2023/04/10 04:33:09;;;;;;;9.60;8.53;;;;;;;9.15;52.49;94962.94;4991122;28;20194;-69
2023/04/10 04:35:35;;;;;;;16.03;9.43;;;;;;;9.14;52.58;94963.94;4996254;28;20261;-69
2023/04/10 04:38:00;;;;;;;10.13;8.17;;;;;;;9.20;52.38;94949.41;4991700;28;20256;-69
2023/04/10 04:40:26;;;;;;;10.47;8.00;;;;;;;9.23;52.53;94968.31;4992455;28;20219;-69
2023/04/10 04:42:51;;;;;;;9.13;8.17;;;;;;;9.17;52.30;94963.63;4993067;28;20224;-69
2023/04/10 04:45:17;;;;;;;9.17;7.90;;;;;;;9.27;52.04;94967.06;4983247;28;21200;-69
2023/04/10 04:47:42;;;;;;;8.63;7.50;;;;;;;9.19;52.26;94966.91;4980583;28;20179;-69
2023/04/10 04:50:08;;;;;;;11.07;8.27;;;;;;;9.18;52.36;94970.53;4986546;28;20223;-69
2023/04/10 04:52:34;;;;;;;11.13;8.20;;;;;;;9.22;52.14;94963.19;4991605;28;20216;-69
2023/04/10 04:55:00;;;;;;;9.37;7.53;;;;;;;9.24;52.02;94975.19;4990554;28;20235;-70
2023/04/10 04:57:25;;;;;;;10.50;7.97;;;;;;;9.20;52.31;94973.84;4989952;28;20232;-68
2023/04/10 04:59:51;;;;;;;8.80;7.73;;;;;;;9.26;52.26;94983.75;4992343;28;20262;-70
2023/04/10 05:02:17;;;;;;;10.27;8.30;;;;;;;9.26;51.98;94986.38;4991716;28;20223;-69
2023/04/10 05:04:43;;;;;;;10.63;8.63;;;;;;;9.25;52.35;94978.66;4991170;28;20282;-70
2023/04/10 05:07:09;;;;;;;12.93;9.03;;;;;;;9.30;52.47;94983.44;4980789;28;20224;-69
2023/04/10 05:09:34;;;;;;;11.90;8.57;;;;;;;9.36;52.04;94988.97;4991350;28;20230;-70
2023/04/10 05:12:01;;;;;;;10.27;8.23;;;;;;;9.37;52.10;94982.72;4987080;28;20191;-68
2023/04/10 05:14:26;;;;;;;9.63;8.63;;;;;;;9.33;52.48;94989.25;4991667;28;20271;-69
2023/04/10 05:16:52;;;;;;;9.20;8.30;;;;;;;9.32;52.07;94990.22;4991359;28;20298;-69
2023/04/10 05:19:17;;;;;;;10.13;8.67;;;;;;;9.33;51.95;94989.25;4991516;28;20231;-69
2023/04/10 05:21:42;;;;;;;10.93;8.47;;;;;;;9.43;51.88;94989.19;4989113;28;20230;-68
2023/04/10 05:24:08;;;;;;;10.47;8.10;;;;;;;9.39;51.60;94985.22;4990781;28;20222;-69
2023/04/10 05:26:33;;;;;;;13.53;7.97;;;;;;;9.43;51.68;94982.16;4992729;28;20263;-69
2023/04/10 05:28:59;;;;;;;12.07;8.37;;;;;;;9.54;51.28;94989.00;4992293;28;20745;-69
2023/04/10 05:31:24;;;;;;;10.07;7.90;;;;;;;9.58;51.27;94981.69;4991390;28;20219;-69
2023/04/10 05:33:50;;;;;;;9.63;8.47;;;;;;;9.59;51.11;94978.06;4988138;28;20219;-69
2023/04/10 05:36:17;;;;;;;9.77;7.83;;;;;;;9.64;50.89;94984.53;4990806;28;20238;-69
2023/04/10 05:38:42;;;;;;;9.20;7.30;;;;;;;9.76;50.41;94981.72;4991744;28;20180;-69
2023/04/10 05:41:08;;;;;;;10.03;8.50;;;;;;;9.65;50.66;94980.94;4994313;28;20358;-69
2023/04/10 05:43:33;;;;;;;12.30;8.23;;;;;;;9.61;51.07;94984.81;4991244;28;20222;-69
2023/04/10 05:45:58;;;;;;;8.73;7.80;;;;;;;9.62;50.80;94983.03;4989601;28;20227;-70
2023/04/10 05:48:25;;;;;;;10.63;8.00;;;;;;;9.71;50.60;94982.97;4987539;28;20246;-69
2023/04/10 05:50:51;;;;;;;9.50;7.67;;;;;;;9.76;50.47;94990.41;4984814;28;20224;-69
2023/04/10 05:53:18;;;;;;;11.17;8.17;;;;;;;9.85;50.22;94991.31;4994282;28;20310;-69
2023/04/10 05:55:44;;;;;;;10.37;7.63;;;;;;;9.88;50.33;94989.22;4994398;28;20220;-70
2023/04/10 05:58:09;;;;;;;9.23;8.33;;;;;;;9.85;50.44;94988.69;4989664;28;20278;-69
2023/04/10 06:00:35;;;;;;;9.60;7.83;;;;;;;9.98;49.95;94989.16;4992777;28;20237;-69
2023/04/10 06:03:02;;;;;;;8.30;7.50;;;;;;;10.05;49.74;94989.38;4995319;28;20221;-69
2023/04/10 06:05:27;;;;;;;10.17;8.17;;;;;;;10.01;50.01;94998.56;4991469;28;20260;-69
2023/04/10 06:07:53;;;;;;;8.63;7.83;;;;;;;10.08;49.80;94992.56;5006399;28;20251;-69
2023/04/10 06:10:18;;;;;;;10.37;8.27;;;;;;;10.07;49.50;94990.88;4991599;28;20217;-69
2023/04/10 06:12:44;;;;;;;9.27;8.37;;;;;;;10.00;49.83;94987.22;4994904;28;20587;-69
2023/04/10 06:15:10;;;;;;;11.33;9.80;;;;;;;10.10;49.68;94995.88;4994318;28;20208;-70
2023/04/10 06:17:41;;;;;;;11.47;9.00;;;;;;;10.18;49.06;94994.28;5006897;28;20369;-69
2023/04/10 06:20:08;;;;;;;10.67;9.57;;;;;;;10.19;49.46;94988.06;4994201;28;20223;-69
2023/04/10 06:22:33;;;;;;;15.27;10.00;;;;;;;10.11;49.32;94989.63;4978046;28;20220;-69
2023/04/10 06:24:58;;;;;;;11.83;10.27;;;;;;;10.24;49.90;94991.06;4983674;28;20265;-69
2023/04/10 06:27:24;;;;;;;9.83;8.37;;;;;;;10.28;49.25;94990.63;4988066;28;20220;-69
2023/04/10 06:29:50;;;;;;;10.00;9.00;;;;;;;10.36;48.92;94990.69;4991368;28;20192;-69
2023/04/10 06:32:15;;;;;;;10.83;9.83;;;;;;;10.36;48.73;94989.88;4993711;28;20231;-69
2023/04/10 06:34:40;;;;;;;11.03;8.80;;;;;;;10.38;48.85;94977.41;4991788;28;20224;-69
2023/04/10 06:37:06;;;;;;;12.27;9.93;;;;;;;10.54;48.48;94985.44;4994008;28;20310;-69
2023/04/10 06:39:31;;;;;;;10.27;9.20;;;;;;;10.33;49.24;94988.38;4995172;28;20226;-69
2023/04/10 06:41:57;;;;;;;12.43;9.63;;;;;;;10.40;48.88;94987.75;4993604;28;20198;-69
2023/04/10 06:44:22;;;;;;;10.87;9.80;;;;;;;10.41;48.95;94982.38;4992988;28;20287;-69
2023/04/10 06:46:47;;;;;;;12.13;10.13;;;;;;;10.57;48.69;94995.66;4962036;28;20295;-70
2023/04/10 06:49:13;;;;;;;11.03;9.93;;;;;;;10.65;48.14;94988.81;4982203;28;20293;-69
2023/04/10 06:51:38;;;;;;;11.07;9.90;;;;;;;10.66;48.42;94999.16;4990554;28;20239;-69
2023/04/10 06:54:04;;;;;;;11.90;9.70;;;;;;;10.65;48.10;94994.06;4992513;28;20251;-69
2023/04/10 06:56:30;;;;;;;10.63;9.63;;;;;;;10.64;48.26;94997.66;4994073;28;20180;-69
2023/04/10 06:58:56;;;;;;;10.97;9.90;;;;;;;10.55;48.25;94994.16;4989783;28;20223;-69
2023/04/10 07:01:22;;;;;;;11.17;9.70;;;;;;;10.71;47.61;94994.25;4993366;28;20215;-69
2023/04/10 07:03:47;;;;;;;10.80;9.73;;;;;;;10.79;47.55;94999.59;4992651;28;20253;-69
2023/04/10 07:06:13;;;;;;;11.20;10.10;;;;;;;10.77;47.61;95003.34;4993567;28;20235;-69
2023/04/10 07:08:40;;;;;;;13.50;11.60;;;;;;;10.75;47.49;94997.44;4994108;28;20211;-69
2023/04/10 07:11:05;;;;;;;11.77;10.67;;;;;;;10.69;47.51;95003.28;4993586;28;20238;-70
2023/04/10 07:13:31;;;;;;;11.07;10.00;;;;;;;10.78;47.49;94997.13;4993767;28;20219;-70
2023/04/10 07:15:56;;;;;;;10.93;9.90;;;;;;;10.70;47.55;94999.69;4991469;28;20287;-70
2023/04/10 07:18:21;;;;;;;12.10;10.23;;;;;;;10.71;47.66;95002.16;4997905;28;20299;-70
2023/04/10 07:20:47;;;;;;;10.50;9.50;;;;;;;10.78;47.54;95003.22;4985253;28;20188;-70
2023/04/10 07:23:12;;;;;;;13.60;10.03;;;;;;;10.67;48.00;95000.00;4993146;28;20223;-69
2023/04/10 07:25:40;;;;;;;11.90;10.77;;;;;;;10.75;47.94;95002.69;4989934;28;20226;-69
2023/04/10 07:28:06;;;;;;;12.80;9.90;;;;;;;10.77;47.63;95000.72;5004736;28;20251;-69
2023/04/10 07:30:31;;;;;;;11.33;10.27;;;;;;;10.79;47.22;94999.59;4993029;28;20314;-69
2023/04/10 07:32:56;;;;;;;11.43;10.33;;;;;;;10.76;47.63;95004.34;4985470;28;20238;-69
2023/04/10 07:35:22;;;;;;;11.57;10.47;;;;;;;10.66;47.76;95007.03;4993377;28;20261;-69
2023/04/10 07:37:50;;;;;;;12.43;11.20;;;;;;;10.62;48.02;95004.91;4991352;28;20230;-70
2023/04/10 07:40:16;;;;;;;12.47;11.17;;;;;;;10.72;47.50;95000.34;4991787;28;20227;-69
2023/04/10 07:42:41;;;;;;;12.90;11.37;;;;;;;10.72;47.95;95000.34;4976679;28;20237;-69
2023/04/10 07:45:07;;;;;;;12.23;10.93;;;;;;;10.85;47.92;95007.84;4992772;28;20535;-69
2023/04/10 07:47:33;;;;;;;10.40;9.40;;;;;;;10.98;47.35;95003.00;4975169;28;20286;-70
2023/04/10 07:49:58;;;;;;;11.87;10.53;;;;;;;11.17;46.58;95002.81;4992766;28;20298;-69
2023/04/10 07:52:24;;;;;;;10.73;9.73;;;;;;;11.25;46.48;95009.91;4992924;28;20223;-70
2023/04/10 07:54:49;;;;;;;12.52;10.25;;;;;;;11.38;46.10;95004.22;4992422;28;20235;-69
2023/04/10 07:57:15;;;;;;;11.83;10.63;;;;;;;11.48;45.81;95003.13;4994213;28;20223;-69
2023/04/10 07:59:40;;;;;;;12.90;10.03;;;;;;;11.44;45.67;95011.50;4992404;28;20211;-68
2023/04/10 08:02:06;;;;;;;11.37;10.17;;;;;;;11.51;45.34;94999.34;4991593;28;20255;-68
2023/04/10 08:04:31;;;;;;;13.00;11.80;;;;;;;11.62;45.18;94999.06;4999693;28;20235;-68
2023/04/10 08:06:57;;;;;;;11.33;10.33;;;;;;;11.71;45.23;94997.31;4992250;28;20604;-68
2023/04/10 08:09:22;;;;;;;12.03;10.83;;;;;;;11.69;45.20;95000.09;4992227;28;20227;-68
2023/04/10 08:11:47;;;;;;;13.10;11.43;;;;;;;11.62;45.47;94998.25;4992930;28;20191;-68
2023/04/10 08:14:13;;;;;;;12.60;11.30;;;;;;;11.52;45.85;95003.66;4991805;28;20234;-68
2023/04/10 08:16:39;;;;;;;13.50;12.15;;;;;;;11.55;46.24;95003.34;4987586;28;20698;-68
2023/04/10 08:19:04;;;;;;;12.20;10.90;;;;;;;11.63;45.34;94998.09;4989158;28;20227;-68
2023/04/10 08:21:33;;;;;;;12.23;11.10;;;;;;;11.54;45.90;95004.28;4995554;28;20223;-68
2023/04/10 08:24:00;;;;;;;12.73;10.60;;;;;;;11.66;45.80;95007.50;4992257;28;20187;-68
2023/04/10 08:26:27;;;;;;;11.98;10.70;;;;;;;11.81;45.83;95007.69;4992436;28;20188;-68
2023/04/10 08:28:54;;;;;;;12.57;11.30;;;;;;;11.91;45.21;95003.16;4991993;28;20226;-68
2023/04/10 08:31:21;;;;;;;11.90;10.80;;;;;;;11.88;45.13;95000.84;4991624;28;20243;-68
2023/04/10 08:33:47;;;;;;;12.20;11.00;;;;;;;11.85;45.13;94999.31;4991722;28;20514;-68
2023/04/10 08:36:16;;;;;;;12.57;11.32;;;;;;;11.99;45.66;95000.53;4992219;28;20750;-68
2023/04/10 08:38:43;;;;;;;11.85;10.60;;;;;;;12.05;44.92;95001.72;4992467;28;20191;-68
2023/04/10 08:41:19;;;;;;;10.32;9.43;;;;;;;12.08;44.37;94996.09;4991672;28;20310;-68
2023/04/10 08:43:45;;;;;;;12.53;11.33;;;;;;;11.98;45.18;94998.91;4992080;28;20229;-68
2023/04/10 08:46:11;;;;;;;11.30;10.10;;;;;;;11.88;45.33;94999.03;4990565;28;20223;-68
2023/04/10 08:48:44;;;;;;;11.52;10.27;;;;;;;11.99;45.26;94997.09;4991839;28;20286;-68
2023/04/10 08:51:20;;;;;;;11.40;10.30;;;;;;;11.88;44.91;94993.75;4968364;28;20187;-68
2023/04/10 08:53:49;;;;;;;13.50;11.20;;;;;;;11.83;45.42;94992.56;4984500;28;20192;-68
2023/04/10 08:56:17;;;;;;;12.18;10.93;;;;;;;11.96;45.03;94997.41;4990745;28;20231;-68
2023/04/10 08:58:44;;;;;;;11.45;10.30;;;;;;;12.04;45.15;95000.06;5003739;28;20227;-68
2023/04/10 09:01:12;;;;;;;11.90;10.38;;;;;;;11.75;45.14;94990.72;4991409;28;20277;-68
2023/04/10 09:03:38;;;;;;;16.08;10.88;;;;;;;11.87;45.35;94989.50;4989658;28;20239;-68
2023/04/10 09:06:04;;;;;;;10.75;9.68;;;;;;;11.82;44.64;94989.09;4990534;28;20242;-68
2023/04/10 09:08:31;;;;;;;12.35;9.70;;;;;;;11.69;45.11;94988.72;4991728;28;20275;-68
2023/04/10 09:10:56;;;;;;;10.48;9.48;;;;;;;11.85;44.88;94986.16;4992887;28;20219;-68
2023/04/10 09:13:42;;;;;;;10.65;9.55;;;;;;;11.81;44.12;94984.00;4991180;28;20222;-68
2023/04/10 09:16:09;;;;;;;12.30;10.20;;;;;;;12.00;44.13;94978.50;4991505;28;20235;-68
2023/04/10 09:18:46;;;;;;;10.25;8.70;;;;;;;12.15;43.22;94983.94;4991245;28;20281;-68
2023/04/10 09:21:14;;;;;;;10.73;9.13;;;;;;;12.13;43.22;94980.63;4990238;28;20287;-68
2023/04/10 09:23:42;;;;;;;9.82;8.82;;;;;;;12.17;42.64;94973.25;4991213;28;20274;-68
2023/04/10 09:26:23;;;;;;;9.63;8.68;;;;;;;12.05;42.99;94978.00;4986647;28;20220;-68
2023/04/10 09:29:02;;;;;;;9.32;8.38;;;;;;;12.09;43.02;94981.97;4994473;28;20254;-67
2023/04/10 09:31:29;;;;;;;9.40;8.52;;;;;;;12.09;43.34;94974.06;4991643;28;20251;-68
2023/04/10 09:34:10;;;;;;;10.25;8.00;;;;;;;12.05;43.08;94983.25;4996592;28;20223;-68
2023/04/10 09:36:36;;;;;;;8.40;7.70;;;;;;;12.14;42.36;94977.84;4990293;28;20224;-68
2023/04/10 09:39:05;;;;;;;9.03;8.13;;;;;;;12.06;42.76;94971.75;4994061;28;20238;-68
2023/04/10 09:41:30;;;;;;;11.73;9.77;;;;;;;12.12;43.05;94964.00;4993380;28;20179;-68
2023/04/10 09:44:13;;;;;;;11.10;9.90;;;;;;;12.12;43.95;94971.09;4995311;28;20544;-68
2023/04/10 09:46:38;;;;;;;12.33;9.00;;;;;;;11.98;43.99;94974.38;4994240;28;20306;-68
2023/04/10 09:49:05;;;;;;;11.73;9.07;;;;;;;12.02;45.21;94968.59;4994519;28;20318;-68
2023/04/10 09:51:33;;;;;;;13.88;10.07;;;;;;;12.10;45.76;94965.16;4994653;28;20223;-69
2023/04/10 09:53:59;;;;;;;10.25;9.27;;;;;;;12.20;45.17;94963.19;4994543;28;20497;-70
2023/04/10 09:56:30;;;;;;;11.25;9.60;;;;;;;12.28;44.88;94968.47;4994803;28;20191;-67
2023/04/10 09:59:00;;;;;;;12.68;10.20;;;;;;;12.40;44.35;94968.16;4993688;28;20675;-70
2023/04/10 10:01:33;;;;;;;11.88;10.18;;;;;;;12.43;44.31;94976.56;4994383;28;20295;-68
2023/04/10 10:04:02;;;;;;;10.82;9.73;;;;;;;12.44;43.41;94965.03;4994614;28;20239;-68
2023/04/10 10:06:32;;;;;;;9.43;8.52;;;;;;;12.51;42.79;94954.63;4990183;28;20711;-69
2023/04/10 10:09:01;;;;;;;9.80;8.87;;;;;;;12.56;41.76;94952.31;4994224;28;20183;-69
2023/04/10 10:11:28;;;;;;;9.50;8.60;;;;;;;12.44;41.89;94951.03;4994999;28;20195;-69
2023/04/10 10:13:55;;;;;;;8.60;7.70;;;;;;;12.44;40.99;94949.22;4994689;28;20219;-67
2023/04/10 10:16:31;;;;;;;8.83;7.93;;;;;;;12.57;40.98;94948.72;4978539;28;20231;-67
2023/04/10 10:19:15;;;;;;;7.95;7.25;;;;;;;12.67;40.34;94940.63;4994508;28;20227;-70
2023/04/10 10:21:43;;;;;;;8.17;7.47;;;;;;;12.78;40.41;94948.22;4988625;28;20247;-67
2023/04/10 10:24:11;;;;;;;10.35;8.32;;;;;;;12.79;40.45;94937.47;4995225;28;20219;-69
2023/04/10 10:26:38;;;;;;;8.90;8.10;;;;;;;12.75;40.32;94940.59;4994564;28;20183;-68
2023/04/10 10:29:09;;;;;;;8.95;8.05;;;;;;;12.76;40.31;94932.53;4991941;28;20298;-68
2023/04/10 10:31:36;;;;;;;8.40;7.60;;;;;;;12.67;40.11;94927.41;4993888;28;20269;-69
2023/04/10 10:34:04;;;;;;;10.73;8.00;;;;;;;12.43;40.80;94929.09;4993462;28;20254;-67
2023/04/10 10:36:33;;;;;;;8.73;7.80;;;;;;;12.63;40.42;94915.56;4994449;28;20231;-67
2023/04/10 10:39:21;;;;;;;9.27;7.85;;;;;;;12.85;40.29;94916.69;4993529;28;20218;-67
2023/04/10 10:42:09;;;;;;;8.70;7.80;;;;;;;12.97;39.82;94910.88;4989270;28;20199;-67
2023/04/10 10:44:44;;;;;;;8.37;7.57;;;;;;;13.14;39.36;94903.72;4991800;28;20254;-69
2023/04/10 10:47:18;;;;;;;10.57;9.00;;;;;;;13.06;39.55;94906.41;4981666;28;20656;-67
2023/04/10 10:50:03;;;;;;;8.57;7.78;;;;;;;13.09;39.29;94905.25;4992104;28;20252;-69
2023/04/10 10:52:56;;;;;;;8.82;7.93;;;;;;;13.16;39.30;94906.22;4983608;28;20238;-67
2023/04/10 10:55:21;;;;;;;8.65;7.93;;;;;;;13.16;39.42;94900.94;4992793;28;20461;-69
2023/04/10 10:57:54;;;;;;;8.53;7.83;;;;;;;13.31;39.08;94888.72;4994662;28;20219;-69
2023/04/10 11:00:21;;;;;;;8.77;7.97;;;;;;;13.30;39.93;94889.69;4993904;28;20227;-70
2023/04/10 11:03:09;;;;;;;8.82;7.93;;;;;;;13.61;38.84;94891.53;4995507;28;20187;-69
2023/04/10 11:05:50;;;;;;;8.20;7.50;;;;;;;13.54;39.08;94882.66;4991827;28;20235;-69
2023/04/10 11:08:15;;;;;;;8.73;7.95;;;;;;;13.86;38.83;94871.06;4987088;28;20277;-70
2023/04/10 11:11:22;;;;;;;8.80;8.00;;;;;;;14.40;37.57;94865.69;4993211;28;20212;-69
2023/04/10 11:13:56;;;;;;;8.50;7.80;;;;;;;14.73;35.67;94868.88;4917749;29;20265;-69
2023/04/10 11:16:32;;;;;;;8.48;7.78;;;;;;;13.53;37.26;94859.88;4931796;29;20228;-68
2023/04/10 11:19:08;;;;;;;9.00;8.10;;;;;;;13.56;38.04;94867.44;4929852;29;20237;-68
2023/04/10 11:21:34;;;;;;;7.65;6.95;;;;;;;13.74;37.10;94861.88;4915554;29;20233;-68
2023/04/10 11:23:59;;;;;;;8.23;7.38;;;;;;;13.72;37.52;94869.19;4917404;29;20592;-69
2023/04/10 11:26:43;;;;;;;7.40;6.82;;;;;;;13.67;37.11;94853.84;4931661;29;20202;-70
2023/04/10 11:29:17;;;;;;;8.05;7.35;;;;;;;13.71;37.32;94852.47;4912464;29;20271;-69
2023/04/10 11:31:54;;;;;;;8.93;8.13;;;;;;;13.63;39.28;94863.94;4932719;29;20231;-69
2023/04/10 11:34:20;;;;;;;10.32;9.32;;;;;;;13.50;42.59;94854.91;4931647;29;20272;-69
2023/04/10 11:36:46;;;;;;;9.65;8.85;;;;;;;13.42;44.54;94855.81;4931224;29;20225;-70